Time;durP1;ratioP1;P1;durP2;ratioP2;P2;SDS_P1;SDS_P2;PMS_P1;PMS_P2;Temp;Humidity;BMP_temperature;BMP_pressure;BME280_temperature;BME280_humidity;BME280_pressure;Samples;Min_cycle;Max_cycle;Signal;HPM_P1;HPM_P2
2021/08/30 00:02:24;;;;;;;13.63;8.07;;;;;;;19.94;63.54;99749.56;5113752;27;20476;-53
2021/08/30 00:04:50;;;;;;;15.15;7.45;;;;;;;19.82;59.45;99727.44;5112483;28;20028;-55
2021/08/30 00:07:16;;;;;;;17.88;7.63;;;;;;;19.98;63.19;99758.19;5111979;28;20024;-55
2021/08/30 00:09:41;;;;;;;11.52;7.72;;;;;;;19.93;62.94;99756.88;5112264;28;20055;-54
2021/08/30 00:12:07;;;;;;;13.27;7.85;;;;;;;19.93;64.41;99753.31;5112299;27;20026;-53
2021/08/30 00:14:33;;;;;;;14.98;7.57;;;;;;;19.93;64.24;99766.91;5112886;28;20051;-55
2021/08/30 00:16:59;;;;;;;11.10;7.18;;;;;;;19.90;64.39;99756.38;5112707;27;20119;-55
2021/08/30 00:19:28;;;;;;;11.68;7.57;;;;;;;19.90;61.42;99757.22;5124825;27;20117;-56
2021/08/30 00:21:54;;;;;;;14.65;8.32;;;;;;;19.88;59.61;99742.97;5132586;27;20417;-51
2021/08/30 00:24:24;;;;;;;17.05;8.38;;;;;;;19.87;59.62;99737.72;5132503;27;20046;-54
2021/08/30 00:26:54;;;;;;;19.42;7.93;;;;;;;19.85;60.46;99747.94;5131061;27;20023;-56
2021/08/30 00:29:26;;;;;;;20.85;8.70;;;;;;;19.83;60.35;99739.13;5122637;27;20024;-56
2021/08/30 00:31:53;;;;;;;17.52;8.27;;;;;;;19.86;59.04;99745.03;5112070;28;20059;-57
2021/08/30 00:34:19;;;;;;;16.88;8.88;;;;;;;19.74;59.14;99728.34;5111868;28;20055;-54
2021/08/30 00:36:44;;;;;;;12.90;8.98;;;;;;;19.74;59.52;99733.78;5112177;28;20054;-55
2021/08/30 00:39:10;;;;;;;16.88;8.40;;;;;;;19.66;59.62;99739.31;5115678;27;20371;-53
2021/08/30 00:41:35;;;;;;;14.57;7.95;;;;;;;19.68;62.64;99744.56;5122803;27;20035;-55
2021/08/30 00:44:01;;;;;;;14.85;7.90;;;;;;;19.61;63.37;99747.16;5132181;27;20031;-53
2021/08/30 00:46:26;;;;;;;11.75;7.80;;;;;;;19.48;64.95;99726.06;5131180;27;20407;-50
2021/08/30 00:48:52;;;;;;;17.20;8.57;;;;;;;19.59;65.21;99749.22;5132112;27;20027;-55
2021/08/30 00:51:19;;;;;;;14.75;7.95;;;;;;;19.58;65.04;99751.09;5113515;27;20028;-54
2021/08/30 00:53:46;;;;;;;16.98;8.40;;;;;;;19.52;65.07;99749.09;5111695;28;20031;-55
2021/08/30 00:56:13;;;;;;;12.18;8.00;;;;;;;19.48;65.51;99751.38;5111379;28;20489;-57
2021/08/30 00:58:44;;;;;;;12.90;7.90;;;;;;;19.43;64.30;99744.78;5112010;28;20069;-55
2021/08/30 01:01:11;;;;;;;13.95;8.52;;;;;;;19.44;64.58;99741.91;5130250;27;20034;-54
2021/08/30 01:03:37;;;;;;;14.85;8.90;;;;;;;19.39;66.58;99743.47;5130522;27;20031;-54
2021/08/30 01:06:09;;;;;;;16.20;8.85;;;;;;;19.43;66.09;99750.22;5129971;27;20066;-56
2021/08/30 01:08:41;;;;;;;14.05;8.95;;;;;;;19.38;66.09;99745.34;5130423;27;20038;-54
2021/08/30 01:11:10;;;;;;;16.58;8.43;;;;;;;19.33;66.17;99748.63;5128535;27;20042;-54
2021/08/30 01:13:45;;;;;;;11.82;8.65;;;;;;;19.41;66.00;99736.84;5130297;27;20039;-56
2021/08/30 01:16:13;;;;;;;15.45;9.45;;;;;;;19.30;66.01;99740.00;5128904;28;20440;-55
2021/08/30 01:18:40;;;;;;;16.88;10.00;;;;;;;19.26;64.57;99742.22;5131298;27;20038;-51
2021/08/30 01:21:32;;;;;;;20.50;9.93;;;;;;;19.35;63.87;99730.28;5125080;28;20393;-54
2021/08/30 01:24:02;;;;;;;12.85;9.00;;;;;;;19.14;65.90;99724.69;5121221;28;20082;-54
2021/08/30 01:26:31;;;;;;;14.93;9.50;;;;;;;19.16;64.30;99744.34;5132089;27;20072;-58
2021/08/30 01:29:14;;;;;;;17.80;10.35;;;;;;;19.21;64.02;99733.78;5131576;27;20027;-56
2021/08/30 01:32:03;;;;;;;18.50;9.77;;;;;;;19.22;63.93;99727.31;5132178;27;20062;-55
2021/08/30 01:34:31;;;;;;;14.00;9.25;;;;;;;18.90;63.82;99697.53;5120690;27;20385;-55
2021/08/30 01:36:57;;;;;;;17.13;9.55;;;;;;;19.08;63.88;99721.69;5111190;28;20031;-55
2021/08/30 01:39:30;;;;;;;14.88;9.82;;;;;;;19.09;64.86;99727.94;5111025;28;20050;-55
2021/08/30 01:42:01;;;;;;;17.27;10.07;;;;;;;19.12;64.40;99729.47;5111087;28;20092;-55
2021/08/30 01:44:28;;;;;;;16.92;10.45;;;;;;;19.14;63.41;99724.69;5115291;28;20465;-56
2021/08/30 01:46:56;;;;;;;16.35;9.95;;;;;;;19.14;63.50;99724.69;5131172;27;20035;-52
2021/08/30 01:49:27;;;;;;;18.52;10.13;;;;;;;19.21;62.53;99720.22;5131813;27;20102;-54
2021/08/30 01:51:53;;;;;;;15.68;9.95;;;;;;;19.17;62.09;99724.31;5131337;27;20397;-53
2021/08/30 01:54:20;;;;;;;15.20;9.70;;;;;;;19.05;61.86;99704.91;5129421;27;20102;-54
2021/08/30 01:56:50;;;;;;;16.80;10.00;;;;;;;19.11;62.24;99708.78;5110334;28;20088;-54
2021/08/30 02:02:02;;;;;;;17.85;9.50;;;;;;;19.10;62.13;99724.19;5114601;28;20020;-53
2021/08/30 02:04:28;;;;;;;13.82;9.52;;;;;;;19.05;64.20;99726.63;5114509;28;20036;-52
2021/08/30 02:06:53;;;;;;;17.83;10.20;;;;;;;18.99;62.83;99728.19;5115849;27;20028;-55
2021/08/30 02:09:19;;;;;;;19.23;10.60;;;;;;;18.94;62.79;99714.31;5114761;28;20397;-52
2021/08/30 02:11:44;;;;;;;18.70;10.63;;;;;;;19.00;62.83;99726.34;5114563;28;20062;-54
2021/08/30 02:14:10;;;;;;;18.17;10.82;;;;;;;18.93;62.84;99728.88;5114678;28;20043;-55
2021/08/30 02:16:36;;;;;;;18.85;11.52;;;;;;;18.96;62.72;99727.69;5115709;27;20029;-53
2021/08/30 02:19:24;;;;;;;16.80;11.15;;;;;;;18.96;63.79;99736.66;5114359;28;20041;-54
2021/08/30 02:21:57;;;;;;;15.07;9.93;;;;;;;18.81;64.69;99709.47;5114449;28;20038;-54
2021/08/30 02:24:35;;;;;;;14.73;10.25;;;;;;;18.90;65.50;99731.97;5114373;28;20039;-56
2021/08/30 02:27:07;;;;;;;19.95;10.60;;;;;;;18.95;65.02;99734.97;5115448;27;20027;-54
2021/08/30 02:29:39;;;;;;;18.98;10.45;;;;;;;18.99;65.40;99741.75;5114468;28;20046;-55
2021/08/30 02:32:07;;;;;;;13.63;10.43;;;;;;;18.97;65.73;99746.50;5114172;28;20063;-56
2021/08/30 02:34:36;;;;;;;18.83;10.40;;;;;;;18.96;65.09;99744.81;5114115;28;20039;-52
2021/08/30 02:37:02;;;;;;;14.98;11.13;;;;;;;19.02;63.64;99749.53;5115675;27;20035;-55
2021/08/30 02:39:29;;;;;;;17.50;10.00;;;;;;;19.05;65.23;99761.91;5121043;28;20032;-56
2021/08/30 02:41:56;;;;;;;19.55;10.52;;;;;;;19.06;65.25;99772.59;5124318;28;20392;-58
2021/08/30 02:44:22;;;;;;;18.73;11.15;;;;;;;19.09;64.39;99822.91;5118100;28;20042;-57
2021/08/30 02:46:48;;;;;;;17.63;9.73;;;;;;;19.20;61.92;99840.66;5114273;28;20023;-58
2021/08/30 02:49:15;;;;;;;15.05;9.43;;;;;;;19.24;61.27;99839.25;5131843;27;20113;-54
2021/08/30 02:51:42;;;;;;;16.02;10.30;;;;;;;19.30;61.22;99835.84;5134204;27;20397;-52
2021/08/30 02:54:09;;;;;;;18.60;9.73;;;;;;;19.34;60.91;99837.16;5134105;27;20027;-55
2021/08/30 02:56:36;;;;;;;17.65;9.75;;;;;;;19.44;60.40;99836.06;5134252;27;20473;-55
2021/08/30 02:59:02;;;;;;;16.42;9.48;;;;;;;19.56;59.85;99823.78;5120112;27;20031;-55
2021/08/30 03:01:28;;;;;;;16.85;9.52;;;;;;;19.72;59.07;99821.91;5113702;28;20072;-57
2021/08/30 03:03:55;;;;;;;18.92;9.60;;;;;;;19.86;59.01;99826.53;5113664;28;20031;-54
2021/08/30 03:06:22;;;;;;;18.35;9.35;;;;;;;20.00;58.58;99816.75;5113802;28;20035;-54
2021/08/30 03:08:48;;;;;;;20.92;9.38;;;;;;;20.14;58.44;99811.53;5118368;27;20031;-56
2021/08/30 03:11:15;;;;;;;14.63;9.20;;;;;;;20.28;58.17;99818.00;5134050;27;20136;-56
2021/08/30 03:13:42;;;;;;;17.55;9.48;;;;;;;20.39;58.58;99819.41;5134165;27;20434;-55
2021/08/30 03:16:08;;;;;;;14.77;9.07;;;;;;;20.46;57.78;99810.25;5133817;27;20034;-55
2021/08/30 03:18:37;;;;;;;17.92;8.95;;;;;;;20.64;57.35;99812.59;5131285;27;20031;-53
2021/08/30 03:21:03;;;;;;;22.00;9.98;;;;;;;20.82;56.63;99830.41;5113293;28;20106;-57
2021/08/30 03:23:31;;;;;;;23.73;9.55;;;;;;;20.99;56.53;99817.44;5112971;28;20599;-55
2021/08/30 03:25:58;;;;;;;15.38;9.63;;;;;;;21.12;56.10;99814.00;5113117;28;20119;-57
2021/08/30 03:28:24;;;;;;;18.20;9.43;;;;;;;21.31;55.76;99819.81;5112965;28;20090;-55
2021/08/30 03:30:52;;;;;;;22.05;10.50;;;;;;;21.53;55.32;99817.94;5127597;27;20144;-54
2021/08/30 03:33:19;;;;;;;16.25;9.32;;;;;;;21.71;55.53;99830.28;5132164;27;20049;-55
2021/08/30 03:35:46;;;;;;;15.77;9.18;;;;;;;21.66;56.21;99819.97;5133723;27;20031;-52
2021/08/30 03:38:12;;;;;;;13.13;9.07;;;;;;;21.49;56.71;99813.94;5131755;27;20035;-54
2021/08/30 03:40:38;;;;;;;15.73;9.77;;;;;;;21.31;58.28;99801.63;5125082;27;20390;-53
2021/08/30 03:43:06;;;;;;;20.90;9.63;;;;;;;20.93;59.67;99778.22;5113044;28;20107;-50
2021/08/30 03:45:32;;;;;;;14.15;8.68;;;;;;;20.85;61.72;99794.66;5112856;28;20034;-55
2021/08/30 03:47:59;;;;;;;13.88;9.35;;;;;;;20.66;62.09;99777.03;5112559;28;20035;-54
2021/08/30 03:50:25;;;;;;;18.38;9.80;;;;;;;20.34;62.80;99752.81;5113861;27;20035;-59
2021/08/30 03:52:52;;;;;;;17.60;9.55;;;;;;;20.39;63.75;99787.59;5111332;28;20042;-53
2021/08/30 03:55:18;;;;;;;17.40;9.55;;;;;;;20.17;64.74;99767.66;5112917;28;20039;-56
2021/08/30 03:57:44;;;;;;;17.52;9.63;;;;;;;19.98;64.93;99769.03;5112182;28;20024;-56
2021/08/30 04:00:10;;;;;;;15.98;9.65;;;;;;;19.88;66.30;99767.44;5112573;28;20035;-57
2021/08/30 04:02:37;;;;;;;16.15;9.80;;;;;;;19.77;67.25;99781.44;5111491;28;20106;-57
2021/08/30 04:05:04;;;;;;;18.40;9.80;;;;;;;19.64;68.43;99780.22;5112262;28;20521;-53
2021/08/30 04:07:31;;;;;;;20.77;10.07;;;;;;;19.51;69.04;99766.44;5111014;28;20043;-57
2021/08/30 04:09:58;;;;;;;18.50;10.07;;;;;;;19.55;69.12;99775.06;5094164;28;20038;-56
2021/08/30 04:12:24;;;;;;;17.23;9.88;;;;;;;19.49;69.47;99772.06;5112336;28;20050;-55
2021/08/30 04:14:50;;;;;;;16.88;10.27;;;;;;;19.49;69.48;99773.91;5130396;27;20031;-63
2021/08/30 04:17:16;;;;;;;15.07;9.93;;;;;;;19.40;69.62;99766.88;5133083;27;20042;-55
2021/08/30 04:19:42;;;;;;;18.48;10.38;;;;;;;19.34;70.31;99766.59;5132167;27;20461;-57
2021/08/30 04:22:08;;;;;;;18.20;10.45;;;;;;;19.35;71.00;99792.72;5132501;27;20579;-59
2021/08/30 04:24:34;;;;;;;16.27;10.48;;;;;;;19.24;70.52;99767.88;5119261;27;20507;-57
2021/08/30 04:26:59;;;;;;;17.80;11.30;;;;;;;19.35;70.45;99800.84;5110208;28;20019;-58
2021/08/30 04:29:27;;;;;;;20.08;11.15;;;;;;;19.38;70.50;99804.22;5111259;28;20051;-53
2021/08/30 04:31:52;;;;;;;16.55;11.57;;;;;;;19.35;70.34;99802.72;5111874;28;20034;-55
2021/08/30 04:34:22;;;;;;;19.38;11.90;;;;;;;19.30;70.75;99784.28;5118554;27;20407;-53
2021/08/30 04:36:51;;;;;;;18.10;11.50;;;;;;;19.18;71.71;99780.28;5132522;27;20031;-53
2021/08/30 04:39:17;;;;;;;16.48;11.63;;;;;;;19.15;72.14;99791.50;5132331;27;20106;-53
2021/08/30 04:41:43;;;;;;;20.42;12.90;;;;;;;19.14;72.38;99785.22;5132276;27;20156;-57
2021/08/30 04:44:12;;;;;;;19.52;12.63;;;;;;;19.16;73.06;99771.50;5130120;27;20459;-56
2021/08/30 04:46:38;;;;;;;19.48;12.30;;;;;;;19.16;73.22;99755.19;5110907;28;20132;-56
2021/08/30 04:49:04;;;;;;;19.85;12.98;;;;;;;19.12;73.50;99762.03;5111369;28;20444;-57
2021/08/30 04:51:29;;;;;;;19.55;12.57;;;;;;;18.76;73.76;99706.47;5111516;28;20031;-57
2021/08/30 04:53:55;;;;;;;19.33;13.23;;;;;;;19.13;73.26;99769.13;5111408;28;20065;-54
2021/08/30 04:56:20;;;;;;;18.25;12.65;;;;;;;19.15;73.89;99775.22;5127303;27;20027;-59
2021/08/30 04:58:46;;;;;;;16.90;12.85;;;;;;;19.16;74.01;99777.75;5146709;27;20027;-57
2021/08/30 05:01:11;;;;;;;22.63;13.13;;;;;;;19.21;73.68;99775.34;5152418;27;20027;-55
2021/08/30 05:03:37;;;;;;;17.05;12.85;;;;;;;19.29;73.80;99771.72;5152301;27;20027;-55
2021/08/30 05:06:02;;;;;;;17.63;12.70;;;;;;;19.31;74.04;99772.38;5141881;27;20062;-53
2021/08/30 05:08:28;;;;;;;18.15;12.75;;;;;;;19.36;74.01;99767.25;5132263;27;20031;-52
2021/08/30 05:10:54;;;;;;;17.15;12.85;;;;;;;19.35;74.30;99757.41;5131487;28;20048;-55
2021/08/30 05:13:20;;;;;;;20.50;13.02;;;;;;;19.38;74.60;99763.50;5131962;27;20460;-53
2021/08/30 05:15:45;;;;;;;21.48;12.48;;;;;;;19.40;74.69;99756.84;5129194;27;20054;-54
2021/08/30 05:18:11;;;;;;;18.42;12.73;;;;;;;19.46;74.46;99755.28;5110956;28;20465;-55
2021/08/30 05:20:36;;;;;;;18.05;12.55;;;;;;;19.58;73.69;99764.69;5111189;28;20027;-54
2021/08/30 05:23:02;;;;;;;18.52;12.32;;;;;;;19.71;73.66;99772.19;5110744;28;20051;-53
2021/08/30 05:25:27;;;;;;;21.92;13.48;;;;;;;19.86;71.73;99774.94;5111017;28;20046;-56
2021/08/30 05:27:53;;;;;;;21.80;13.63;;;;;;;19.79;70.95;99728.63;5127553;28;20035;-56
2021/08/30 05:30:19;;;;;;;21.38;13.38;;;;;;;19.98;70.55;99750.03;5131994;27;20483;-55
2021/08/30 05:32:45;;;;;;;22.00;13.75;;;;;;;20.00;71.50;99761.53;5134937;27;20110;-56
2021/08/30 05:35:11;;;;;;;19.35;13.32;;;;;;;20.06;70.15;99761.66;5135328;27;20023;-54
2021/08/30 05:37:36;;;;;;;21.35;13.85;;;;;;;20.11;69.81;99749.38;5124470;27;20424;-53
2021/08/30 05:40:03;;;;;;;22.30;13.27;;;;;;;20.08;70.41;99761.47;5114990;28;20035;-54
2021/08/30 05:42:29;;;;;;;19.83;13.45;;;;;;;20.10;70.37;99751.25;5114864;28;20111;-52
2021/08/30 05:44:54;;;;;;;24.85;14.85;;;;;;;20.23;69.27;99745.97;5114502;28;20390;-51
2021/08/30 05:47:20;;;;;;;21.63;14.05;;;;;;;20.16;68.79;99749.66;5116046;27;20027;-58
2021/08/30 05:49:45;;;;;;;21.15;14.73;;;;;;;20.12;69.72;99753.75;5114851;28;20042;-52
2021/08/30 05:52:13;;;;;;;22.60;15.35;;;;;;;20.20;69.17;99749.06;5113443;28;20059;-52
2021/08/30 05:54:39;;;;;;;24.55;14.65;;;;;;;20.19;70.52;99750.13;5114355;27;20096;-48
2021/08/30 05:57:04;;;;;;;25.13;14.63;;;;;;;20.28;69.53;99760.91;5115063;28;20031;-50
2021/08/30 05:59:30;;;;;;;23.05;13.73;;;;;;;20.34;68.24;99752.81;5115614;27;20475;-52
2021/08/30 06:01:55;;;;;;;26.05;14.27;;;;;;;20.43;67.37;99758.16;5114865;28;20060;-50
2021/08/30 06:04:21;;;;;;;25.95;15.18;;;;;;;20.28;66.78;99747.31;5114726;28;20464;-53
2021/08/30 06:06:46;;;;;;;24.75;15.13;;;;;;;20.17;67.99;99768.50;5114306;28;20080;-50
2021/08/30 06:09:11;;;;;;;23.50;15.07;;;;;;;20.00;68.47;99769.69;5115763;27;20107;-54
2021/08/30 06:11:37;;;;;;;25.92;15.13;;;;;;;19.93;69.07;99777.78;5124756;27;20038;-56
2021/08/30 06:14:02;;;;;;;26.48;15.43;;;;;;;19.94;69.07;99777.56;5134795;27;20031;-59
2021/08/30 06:16:28;;;;;;;23.67;15.13;;;;;;;19.81;69.31;99744.75;5116114;27;20088;-62
2021/08/30 06:18:53;;;;;;;24.60;15.93;;;;;;;19.88;68.34;99758.41;5130497;27;20053;-60
2021/08/30 06:21:19;;;;;;;24.90;15.18;;;;;;;19.97;68.60;99789.09;5114292;28;20024;-60
2021/08/30 06:23:44;;;;;;;22.92;14.85;;;;;;;20.02;69.15;99808.44;5122693;27;20043;-57
2021/08/30 06:26:10;;;;;;;24.20;15.27;;;;;;;20.08;68.62;99796.81;5134503;27;20035;-59
2021/08/30 06:28:35;;;;;;;25.80;15.43;;;;;;;20.25;67.60;99821.06;5134565;27;20035;-58
2021/08/30 06:31:01;;;;;;;31.15;16.60;;;;;;;20.26;68.17;99814.63;5117120;27;20457;-58
2021/08/30 06:33:26;;;;;;;24.83;15.65;;;;;;;20.43;67.32;99820.69;5114327;28;20048;-59
2021/08/30 06:35:52;;;;;;;29.35;16.17;;;;;;;20.55;67.63;99808.28;5121809;27;20027;-58
2021/08/30 06:38:18;;;;;;;26.63;16.00;;;;;;;20.61;66.82;99807.53;5133044;27;20620;-57
2021/08/30 06:40:43;;;;;;;26.23;16.23;;;;;;;20.67;66.41;99810.53;5134282;27;20023;-56
2021/08/30 06:43:09;;;;;;;26.60;15.65;;;;;;;20.59;66.70;99804.16;5134212;27;20027;-59
2021/08/30 06:45:34;;;;;;;24.08;16.38;;;;;;;20.56;67.13;99807.25;5132427;27;20524;-57
2021/08/30 06:48:01;;;;;;;28.42;15.90;;;;;;;20.58;67.32;99807.91;5134177;27;20067;-58
2021/08/30 06:50:27;;;;;;;26.52;16.33;;;;;;;20.62;67.33;99806.53;5134347;27;20484;-58
2021/08/30 06:52:53;;;;;;;27.88;17.08;;;;;;;20.71;67.39;99812.66;5133977;27;20084;-60
2021/08/30 06:55:19;;;;;;;25.65;18.52;;;;;;;20.81;67.08;99817.00;5133666;27;20046;-60
2021/08/30 06:57:45;;;;;;;26.05;17.27;;;;;;;20.89;66.97;99803.28;5132152;27;20075;-60
2021/08/30 07:00:11;;;;;;;28.88;16.58;;;;;;;21.15;66.83;99799.16;5133294;27;20110;-60
2021/08/30 07:02:36;;;;;;;26.90;19.25;;;;;;;21.26;65.15;99759.69;5133236;27;20464;-60
2021/08/30 07:05:03;;;;;;;34.05;19.65;;;;;;;21.55;64.75;99796.81;5133901;27;20027;-59
2021/08/30 07:07:29;;;;;;;26.65;20.17;;;;;;;21.58;64.59;99781.94;5123211;27;20034;-59
2021/08/30 07:09:55;;;;;;;29.98;22.25;;;;;;;21.49;65.08;99792.97;5113435;28;20366;-60
2021/08/30 07:12:21;;;;;;;35.50;23.35;;;;;;;21.43;65.54;99798.34;5112896;28;20032;-61
2021/08/30 07:14:46;;;;;;;32.60;22.23;;;;;;;21.46;66.01;99797.97;5111465;28;20578;-60
2021/08/30 07:17:12;;;;;;;33.08;23.25;;;;;;;21.57;65.22;99802.91;5114138;27;20468;-59
2021/08/30 07:19:37;;;;;;;29.65;23.55;;;;;;;21.71;64.15;99801.16;5113031;28;20031;-60
2021/08/30 07:22:05;;;;;;;35.33;23.02;;;;;;;21.95;62.73;99801.75;5125768;27;20043;-60
2021/08/30 07:24:31;;;;;;;31.05;20.67;;;;;;;22.15;61.09;99799.13;5133866;27;20066;-62
2021/08/30 07:26:56;;;;;;;31.73;18.70;;;;;;;22.44;60.61;99805.38;5132388;27;20066;-58
2021/08/30 07:29:22;;;;;;;30.02;20.92;;;;;;;22.71;59.87;99805.53;5113602;27;20052;-57
2021/08/30 07:31:49;;;;;;;32.33;20.17;;;;;;;22.90;58.67;99811.22;5118005;28;20031;-59
2021/08/30 07:34:14;;;;;;;29.42;20.45;;;;;;;22.85;58.36;99811.88;5114326;28;20062;-57
2021/08/30 07:36:40;;;;;;;33.67;19.92;;;;;;;22.56;59.35;99811.13;5109759;28;20024;-58
2021/08/30 07:39:06;;;;;;;30.58;18.65;;;;;;;22.26;59.63;99814.09;5108471;28;20028;-60
2021/08/30 07:41:31;;;;;;;35.28;20.63;;;;;;;21.79;61.67;99814.63;5109295;28;20096;-58
2021/08/30 07:43:58;;;;;;;29.00;19.63;;;;;;;21.48;62.95;99831.31;5110106;28;20153;-58
2021/08/30 07:46:25;;;;;;;32.42;19.15;;;;;;;21.34;63.57;99827.59;5112710;28;20148;-58
2021/08/30 07:48:51;;;;;;;32.65;19.60;;;;;;;21.35;63.70;99823.88;5112430;28;20028;-56
2021/08/30 07:51:18;;;;;;;28.55;19.35;;;;;;;21.36;63.23;99831.84;5112223;28;20039;-59
2021/08/30 07:53:43;;;;;;;36.95;20.13;;;;;;;21.13;63.18;99802.09;5112098;28;20027;-60
2021/08/30 07:56:10;;;;;;;27.30;18.52;;;;;;;21.23;63.16;99835.25;5129447;27;20577;-59
2021/08/30 07:58:35;;;;;;;32.03;19.65;;;;;;;21.25;62.91;99829.63;5132433;27;20034;-58
2021/08/30 08:01:02;;;;;;;33.60;20.33;;;;;;;21.25;62.95;99829.63;5132657;27;20392;-56
2021/08/30 08:03:27;;;;;;;25.42;20.48;;;;;;;21.20;63.05;99811.16;5133094;27;20027;-60
2021/08/30 08:05:53;;;;;;;28.73;19.00;;;;;;;21.24;62.93;99827.97;5132552;27;20049;-60
2021/08/30 08:08:18;;;;;;;35.38;20.10;;;;;;;21.41;62.23;99830.41;5132575;27;20512;-58
2021/08/30 08:10:44;;;;;;;26.40;19.33;;;;;;;21.58;61.84;99823.66;5132280;27;20124;-60
2021/08/30 08:13:10;;;;;;;32.58;21.00;;;;;;;21.76;61.02;99830.53;5131365;27;20038;-58
2021/08/30 08:15:37;;;;;;;31.02;20.50;;;;;;;21.92;60.58;99815.78;5132868;27;20507;-61
2021/08/30 08:18:02;;;;;;;31.42;20.17;;;;;;;22.25;59.28;99809.66;5132050;27;20031;-59
2021/08/30 08:20:31;;;;;;;35.83;20.77;;;;;;;22.72;58.37;99806.34;5127304;27;20491;-57
2021/08/30 08:22:56;;;;;;;27.25;19.15;;;;;;;23.39;56.35;99808.41;5132575;27;20047;-60
2021/08/30 08:25:22;;;;;;;33.90;20.00;;;;;;;24.13;53.69;99802.94;5116203;27;20348;-57
2021/08/30 08:27:48;;;;;;;28.35;20.42;;;;;;;24.73;51.62;99808.19;5123915;27;20038;-60
2021/08/30 08:30:13;;;;;;;32.88;19.83;;;;;;;25.01;50.41;99807.03;5130856;27;20076;-60
2021/08/30 08:32:41;;;;;;;31.48;19.70;;;;;;;25.19;50.40;99797.22;5132050;27;20437;-59
2021/08/30 08:35:07;;;;;;;29.50;19.45;;;;;;;25.46;49.53;99797.03;5132276;27;20039;-57
2021/08/30 08:37:33;;;;;;;26.38;18.48;;;;;;;25.88;48.41;99794.59;5123461;27;20024;-62
2021/08/30 08:39:58;;;;;;;25.67;19.25;;;;;;;26.01;47.44;99771.66;5111259;28;20115;-58
2021/08/30 08:42:24;;;;;;;24.80;18.85;;;;;;;26.27;47.50;99790.81;5124622;27;20106;-57
2021/08/30 08:44:49;;;;;;;28.45;18.27;;;;;;;26.39;46.31;99804.63;5129590;27;20059;-56
2021/08/30 08:47:17;;;;;;;26.80;16.08;;;;;;;26.36;47.01;99806.75;5129302;27;20448;-57
2021/08/30 08:49:51;;;;;;;22.65;15.75;;;;;;;26.20;47.10;99772.53;5117030;27;20031;-60
2021/08/30 08:52:21;;;;;;;31.10;17.77;;;;;;;26.08;47.02;99799.03;5111728;27;20035;-60
2021/08/30 08:54:47;;;;;;;26.02;16.58;;;;;;;25.43;48.25;99762.69;5111046;28;20015;-57
2021/08/30 08:57:13;;;;;;;23.02;15.88;;;;;;;25.60;47.81;99771.22;5110873;28;20030;-57
2021/08/30 08:59:38;;;;;;;27.80;16.55;;;;;;;26.11;47.12;99781.25;5111528;28;20034;-61
2021/08/30 09:02:06;;;;;;;28.15;17.55;;;;;;;26.30;46.52;99795.88;5111365;28;20059;-64
2021/08/30 09:04:33;;;;;;;28.95;18.17;;;;;;;26.09;46.64;99770.53;5111230;28;20027;-60
2021/08/30 09:07:13;;;;;;;27.00;16.27;;;;;;;26.20;47.44;99763.47;5114033;28;20376;-61
2021/08/30 09:09:40;;;;;;;25.75;16.60;;;;;;;26.14;46.88;99736.91;5125348;27;20430;-61
2021/08/30 09:12:19;;;;;;;24.35;17.50;;;;;;;26.60;46.08;99773.13;5135749;27;20039;-60
2021/08/30 09:14:44;;;;;;;26.10;17.48;;;;;;;26.04;46.54;99737.44;5136295;27;20031;-59
2021/08/30 09:17:10;;;;;;;26.02;16.70;;;;;;;26.14;46.61;99756.97;5135760;27;20031;-61
2021/08/30 09:19:38;;;;;;;33.47;17.13;;;;;;;26.30;46.29;99758.28;5135436;27;20235;-60
2021/08/30 09:22:04;;;;;;;25.25;17.17;;;;;;;26.24;46.47;99756.47;5136312;27;20126;-59
2021/08/30 09:24:31;;;;;;;27.63;17.42;;;;;;;25.99;47.16;99756.50;5136014;27;20480;-60
2021/08/30 09:27:05;;;;;;;31.17;17.55;;;;;;;25.83;48.32;99769.75;5119302;27;20043;-60
2021/08/30 09:29:33;;;;;;;27.27;16.38;;;;;;;25.73;48.18;99767.53;5114493;28;20349;-61
2021/08/30 09:32:10;;;;;;;25.52;17.58;;;;;;;25.85;48.63;99770.38;5115390;28;20134;-60
2021/08/30 09:34:39;;;;;;;32.30;18.88;;;;;;;25.60;48.53;99759.41;5113868;28;20023;-58
2021/08/30 09:37:12;;;;;;;27.50;17.08;;;;;;;25.25;49.70;99760.72;5118955;27;20031;-60
2021/08/30 09:39:48;;;;;;;26.83;17.85;;;;;;;25.17;49.82;99750.03;5116488;27;20488;-59
2021/08/30 09:42:14;;;;;;;28.92;16.52;;;;;;;24.77;50.64;99768.41;5115263;28;20039;-59
2021/08/30 09:44:40;;;;;;;24.90;17.02;;;;;;;24.68;51.00;99769.69;5114829;27;20036;-60
2021/08/30 09:47:15;;;;;;;26.65;16.23;;;;;;;24.87;51.05;99764.38;5114905;28;20067;-61
2021/08/30 09:49:42;;;;;;;23.50;16.13;;;;;;;25.19;49.78;99769.84;5126439;27;20033;-61
2021/08/30 09:52:08;;;;;;;22.52;15.02;;;;;;;25.33;49.14;99734.94;5133988;27;20387;-67
2021/08/30 09:54:34;;;;;;;24.00;15.63;;;;;;;25.57;48.79;99777.16;5135845;27;20020;-63
2021/08/30 09:57:01;;;;;;;26.60;15.82;;;;;;;25.62;48.96;99752.66;5134160;27;20039;-63
2021/08/30 09:59:30;;;;;;;25.75;15.15;;;;;;;25.82;48.60;99761.75;5134116;27;20031;-63
2021/08/30 10:01:59;;;;;;;24.30;15.60;;;;;;;25.92;47.86;99756.56;5135009;27;20511;-63
2021/08/30 10:04:26;;;;;;;22.75;16.77;;;;;;;25.90;48.04;99765.03;5134416;27;20031;-64
2021/08/30 10:06:53;;;;;;;22.25;15.20;;;;;;;25.88;48.07;99760.81;5133018;27;20039;-63
2021/08/30 10:09:20;;;;;;;20.40;15.10;;;;;;;25.89;47.94;99755.13;5135197;27;20031;-63
2021/08/30 10:11:48;;;;;;;17.58;13.48;;;;;;;25.67;48.24;99720.97;5135401;27;20494;-64
2021/08/30 10:14:19;;;;;;;24.30;15.18;;;;;;;26.00;48.16;99753.53;5135008;27;20027;-62
2021/08/30 10:16:45;;;;;;;21.00;13.43;;;;;;;25.94;48.24;99760.75;5133444;27;20432;-63
2021/08/30 10:19:11;;;;;;;19.85;13.95;;;;;;;25.73;48.54;99755.69;5133911;27;20023;-63
2021/08/30 10:21:45;;;;;;;23.65;13.73;;;;;;;25.87;48.73;99768.22;5132969;27;20065;-62
2021/08/30 10:24:12;;;;;;;21.48;12.82;;;;;;;25.91;48.29;99766.72;5135082;27;20031;-61
2021/08/30 10:26:41;;;;;;;19.80;13.57;;;;;;;26.11;48.36;99778.53;5133251;27;20054;-63
2021/08/30 10:29:08;;;;;;;24.17;14.07;;;;;;;26.22;47.72;99777.81;5133314;27;20031;-77
2021/08/30 10:31:34;;;;;;;24.73;12.65;;;;;;;26.02;47.43;99723.97;5134746;27;20032;-63
2021/08/30 10:34:00;;;;;;;22.40;13.73;;;;;;;26.42;47.08;99772.06;5134763;27;20102;-64
2021/08/30 10:36:28;;;;;;;19.80;11.63;;;;;;;26.46;47.35;99778.78;5134575;27;20069;-65
2021/08/30 10:38:59;;;;;;;20.90;11.80;;;;;;;26.31;47.24;99751.72;5134400;27;20388;-63
2021/08/30 10:41:31;;;;;;;15.65;12.25;;;;;;;26.36;47.32;99778.50;5134538;27;20434;-64
2021/08/30 10:44:12;;;;;;;15.52;11.68;;;;;;;26.21;47.88;99776.97;5134438;27;20868;-64
2021/08/30 10:46:42;;;;;;;15.13;11.43;;;;;;;26.06;48.48;99774.56;5132854;27;20027;-66
2021/08/30 10:49:29;;;;;;;15.27;10.85;;;;;;;26.26;48.16;99779.03;5134763;27;20027;-67
2021/08/30 10:52:13;;;;;;;14.07;11.23;;;;;;;26.43;47.65;99772.94;5133079;27;20019;-63
2021/08/30 10:54:58;;;;;;;16.35;11.43;;;;;;;26.64;47.37;99777.91;5134843;27;20487;-71
2021/08/30 10:57:34;;;;;;;20.48;12.70;;;;;;;26.70;47.14;99767.91;5134472;27;20027;-64
2021/08/30 11:00:00;;;;;;;15.05;11.75;;;;;;;26.57;47.14;99768.91;5134118;27;20103;-64
2021/08/30 11:02:40;;;;;;;17.45;11.80;;;;;;;26.85;46.97;99769.44;5134378;27;20051;-65
2021/08/30 11:05:07;;;;;;;20.95;12.20;;;;;;;26.80;46.72;99757.22;5134313;27;20031;-64
2021/08/30 11:07:34;;;;;;;20.15;12.23;;;;;;;26.86;46.62;99763.69;5132602;27;20030;-65
2021/08/30 11:10:01;;;;;;;14.77;10.40;;;;;;;26.77;46.15;99735.72;5133979;27;20042;-65
2021/08/30 11:12:26;;;;;;;14.50;10.88;;;;;;;27.00;46.37;99760.75;5132570;27;20027;-64
2021/08/30 11:14:57;;;;;;;14.68;10.80;;;;;;;27.10;45.78;99763.75;5133736;27;20076;-65
2021/08/30 11:17:30;;;;;;;20.95;11.00;;;;;;;27.10;45.99;99754.69;5133886;27;20031;-63
2021/08/30 11:19:57;;;;;;;15.25;10.93;;;;;;;27.11;45.95;99767.38;5133821;27;20487;-64
2021/08/30 11:22:23;;;;;;;18.42;10.40;;;;;;;27.20;45.47;99752.19;5133712;27;20135;-63
2021/08/30 11:24:49;;;;;;;20.02;10.65;;;;;;;27.42;44.82;99762.63;5133778;27;20113;-64